sensor_id;sensor_type;location;lat;lon;timestamp;pressure;altitude;pressure_sealevel;temperature;humidity
58223;BME280;44020;50.890;15.796;2022-12-18T00:01:31;99040.29;;;-4.21;78.29
58223;BME280;44020;50.890;15.796;2022-12-18T00:04:02;99044.15;;;-4.18;78.51
58223;BME280;44020;50.890;15.796;2022-12-18T00:06:30;99041.58;;;-4.14;78.66
58223;BME280;44020;50.890;15.796;2022-12-18T00:09:00;99041.60;;;-4.12;78.45
58223;BME280;44020;50.890;15.796;2022-12-18T00:11:29;99044.90;;;-4.12;78.41
58223;BME280;44020;50.890;15.796;2022-12-18T00:13:58;99044.89;;;-4.13;78.31
58223;BME280;44020;50.890;15.796;2022-12-18T00:16:27;99053.74;;;-4.13;78.18
58223;BME280;44020;50.890;15.796;2022-12-18T00:18:56;99051.14;;;-4.13;78.18
58223;BME280;44020;50.890;15.796;2022-12-18T00:21:24;99045.40;;;-4.15;78.05
58223;BME280;44020;50.890;15.796;2022-12-18T00:23:52;99043.11;;;-4.18;77.93
58223;BME280;44020;50.890;15.796;2022-12-18T00:26:28;99041.52;;;-4.20;77.74
58223;BME280;44020;50.890;15.796;2022-12-18T00:29:01;99046.20;;;-4.21;77.84
58223;BME280;44020;50.890;15.796;2022-12-18T00:31:28;99046.36;;;-4.23;77.86
58223;BME280;44020;50.890;15.796;2022-12-18T00:33:56;99054.13;;;-4.26;77.64
58223;BME280;44020;50.890;15.796;2022-12-18T00:36:30;99055.16;;;-4.26;77.80
58223;BME280;44020;50.890;15.796;2022-12-18T00:38:59;99060.88;;;-4.27;77.54
58223;BME280;44020;50.890;15.796;2022-12-18T00:41:27;99061.02;;;-4.30;77.44
58223;BME280;44020;50.890;15.796;2022-12-18T00:44:15;99062.71;;;-4.35;77.51
58223;BME280;44020;50.890;15.796;2022-12-18T00:46:44;99065.65;;;-4.36;77.78
58223;BME280;44020;50.890;15.796;2022-12-18T00:49:13;99071.20;;;-4.35;78.04
58223;BME280;44020;50.890;15.796;2022-12-18T00:51:40;99076.60;;;-4.34;78.08
58223;BME280;44020;50.890;15.796;2022-12-18T00:54:07;99079.04;;;-4.33;78.13
58223;BME280;44020;50.890;15.796;2022-12-18T00:56:36;99081.95;;;-4.35;78.06
58223;BME280;44020;50.890;15.796;2022-12-18T00:59:04;99087.81;;;-4.39;77.71
58223;BME280;44020;50.890;15.796;2022-12-18T01:01:32;99089.48;;;-4.46;77.73
58223;BME280;44020;50.890;15.796;2022-12-18T01:04:01;99092.05;;;-4.48;77.71
58223;BME280;44020;50.890;15.796;2022-12-18T01:06:29;99090.84;;;-4.48;77.69
58223;BME280;44020;50.890;15.796;2022-12-18T01:08:56;99095.45;;;-4.52;77.33
58223;BME280;44020;50.890;15.796;2022-12-18T01:11:24;99095.38;;;-4.59;77.11
58223;BME280;44020;50.890;15.796;2022-12-18T01:13:52;99099.80;;;-4.66;77.22
58223;BME280;44020;50.890;15.796;2022-12-18T01:16:21;99095.96;;;-4.68;77.31
58223;BME280;44020;50.890;15.796;2022-12-18T01:18:51;99096.27;;;-4.71;77.21
58223;BME280;44020;50.890;15.796;2022-12-18T01:21:20;99102.45;;;-4.75;77.12
58223;BME280;44020;50.890;15.796;2022-12-18T01:23:53;99102.77;;;-4.76;77.20
58223;BME280;44020;50.890;15.796;2022-12-18T01:26:21;99105.48;;;-4.83;77.40
58223;BME280;44020;50.890;15.796;2022-12-18T01:28:49;99103.99;;;-4.89;77.73
58223;BME280;44020;50.890;15.796;2022-12-18T01:31:21;99105.39;;;-4.89;77.99
58223;BME280;44020;50.890;15.796;2022-12-18T01:33:50;99106.59;;;-4.90;78.12
58223;BME280;44020;50.890;15.796;2022-12-18T01:36:20;99102.76;;;-4.91;78.04
58223;BME280;44020;50.890;15.796;2022-12-18T01:38:49;99103.46;;;-4.90;77.87
58223;BME280;44020;50.890;15.796;2022-12-18T01:41:18;99108.84;;;-4.91;77.65
58223;BME280;44020;50.890;15.796;2022-12-18T01:43:55;99108.66;;;-4.91;77.67
58223;BME280;44020;50.890;15.796;2022-12-18T01:46:25;99111.04;;;-4.93;77.61
58223;BME280;44020;50.890;15.796;2022-12-18T01:48:57;99115.86;;;-4.96;77.35
58223;BME280;44020;50.890;15.796;2022-12-18T01:51:26;99117.39;;;-4.98;77.27
58223;BME280;44020;50.890;15.796;2022-12-18T01:53:54;99116.84;;;-5.00;77.25
58223;BME280;44020;50.890;15.796;2022-12-18T01:56:22;99114.75;;;-5.01;77.41
58223;BME280;44020;50.890;15.796;2022-12-18T01:59:02;99111.96;;;-5.02;77.28
58223;BME280;44020;50.890;15.796;2022-12-18T02:01:31;99113.30;;;-5.05;77.12
58223;BME280;44020;50.890;15.796;2022-12-18T02:04:23;99116.71;;;-5.09;77.04
58223;BME280;44020;50.890;15.796;2022-12-18T02:07:14;99124.11;;;-5.12;76.99
58223;BME280;44020;50.890;15.796;2022-12-18T02:13:49;99122.23;;;-5.22;77.25
58223;BME280;44020;50.890;15.796;2022-12-18T02:18:27;99116.08;;;-5.16;77.67
58223;BME280;44020;50.890;15.796;2022-12-18T02:24:23;99118.66;;;-5.05;78.02
58223;BME280;44020;50.890;15.796;2022-12-18T02:26:57;99128.95;;;-5.01;77.97
58223;BME280;44020;50.890;15.796;2022-12-18T02:29:32;99133.85;;;-4.97;78.00
58223;BME280;44020;50.890;15.796;2022-12-18T02:32:00;99132.67;;;-4.95;77.79
58223;BME280;44020;50.890;15.796;2022-12-18T02:34:32;99132.38;;;-4.93;77.83
58223;BME280;44020;50.890;15.796;2022-12-18T02:37:03;99134.45;;;-4.92;77.61
58223;BME280;44020;50.890;15.796;2022-12-18T02:39:33;99138.61;;;-4.93;77.54
58223;BME280;44020;50.890;15.796;2022-12-18T02:42:01;99137.34;;;-4.96;77.43
58223;BME280;44020;50.890;15.796;2022-12-18T02:44:34;99141.65;;;-4.98;77.34
58223;BME280;44020;50.890;15.796;2022-12-18T02:47:02;99145.38;;;-5.03;77.14
58223;BME280;44020;50.890;15.796;2022-12-18T02:57:40;99154.67;;;-5.18;77.23
58223;BME280;44020;50.890;15.796;2022-12-18T03:00:17;99152.27;;;-5.17;77.20
58223;BME280;44020;50.890;15.796;2022-12-18T03:02:59;99152.95;;;-5.18;77.08
58223;BME280;44020;50.890;15.796;2022-12-18T03:05:35;99158.59;;;-5.23;77.00
58223;BME280;44020;50.890;15.796;2022-12-18T03:08:08;99163.26;;;-5.24;77.03
58223;BME280;44020;50.890;15.796;2022-12-18T03:10:45;99161.81;;;-5.27;77.06
58223;BME280;44020;50.890;15.796;2022-12-18T03:13:24;99161.14;;;-5.26;77.26
58223;BME280;44020;50.890;15.796;2022-12-18T03:15:55;99158.23;;;-5.23;77.52
58223;BME280;44020;50.890;15.796;2022-12-18T03:18:36;99153.97;;;-5.20;77.64
58223;BME280;44020;50.890;15.796;2022-12-18T03:21:06;99154.86;;;-5.17;77.74
58223;BME280;44020;50.890;15.796;2022-12-18T03:23:40;99159.20;;;-5.17;77.75
58223;BME280;44020;50.890;15.796;2022-12-18T03:26:10;99164.04;;;-5.18;77.68
58223;BME280;44020;50.890;15.796;2022-12-18T03:28:42;99166.73;;;-5.22;77.55
58223;BME280;44020;50.890;15.796;2022-12-18T03:31:12;99166.69;;;-5.26;77.47
58223;BME280;44020;50.890;15.796;2022-12-18T03:33:46;99165.10;;;-5.28;77.56
58223;BME280;44020;50.890;15.796;2022-12-18T03:36:15;99162.14;;;-5.28;77.57
58223;BME280;44020;50.890;15.796;2022-12-18T03:38:42;99162.79;;;-5.32;77.26
58223;BME280;44020;50.890;15.796;2022-12-18T03:41:14;99165.41;;;-5.31;77.54
58223;BME280;44020;50.890;15.796;2022-12-18T03:43:49;99169.41;;;-5.29;77.45
58223;BME280;44020;50.890;15.796;2022-12-18T03:52:00;99179.49;;;-5.37;77.08
58223;BME280;44020;50.890;15.796;2022-12-18T03:54:29;99179.92;;;-5.42;76.97
58223;BME280;44020;50.890;15.796;2022-12-18T03:57:03;99181.39;;;-5.47;77.01
58223;BME280;44020;50.890;15.796;2022-12-18T03:59:34;99179.81;;;-5.48;77.10
58223;BME280;44020;50.890;15.796;2022-12-18T04:02:03;99174.83;;;-5.46;77.34
58223;BME280;44020;50.890;15.796;2022-12-18T04:04:35;99175.41;;;-5.43;77.46
58223;BME280;44020;50.890;15.796;2022-12-18T04:07:05;99170.75;;;-5.42;77.42
58223;BME280;44020;50.890;15.796;2022-12-18T04:09:33;99180.21;;;-5.44;77.47
58223;BME280;44020;50.890;15.796;2022-12-18T04:12:02;99185.09;;;-5.44;77.81
58223;BME280;44020;50.890;15.796;2022-12-18T04:14:29;99191.48;;;-5.45;77.84
58223;BME280;44020;50.890;15.796;2022-12-18T04:16:56;99194.96;;;-5.44;77.90
58223;BME280;44020;50.890;15.796;2022-12-18T04:19:24;99194.20;;;-5.48;77.65
58223;BME280;44020;50.890;15.796;2022-12-18T04:21:51;99191.40;;;-5.49;77.68
58223;BME280;44020;50.890;15.796;2022-12-18T04:24:18;99185.66;;;-5.50;77.72
58223;BME280;44020;50.890;15.796;2022-12-18T04:26:45;99187.40;;;-5.51;77.63
58223;BME280;44020;50.890;15.796;2022-12-18T04:29:12;99183.24;;;-5.50;77.66
58223;BME280;44020;50.890;15.796;2022-12-18T04:31:39;99185.67;;;-5.50;77.56
58223;BME280;44020;50.890;15.796;2022-12-18T04:34:06;99189.23;;;-5.55;77.28
58223;BME280;44020;50.890;15.796;2022-12-18T04:36:34;99187.61;;;-5.58;77.37
58223;BME280;44020;50.890;15.796;2022-12-18T04:39:01;99184.44;;;-5.61;77.38
58223;BME280;44020;50.890;15.796;2022-12-18T04:41:28;99189.27;;;-5.62;77.40
58223;BME280;44020;50.890;15.796;2022-12-18T04:43:55;99194.13;;;-5.62;77.42
58223;BME280;44020;50.890;15.796;2022-12-18T04:46:22;99195.50;;;-5.62;77.42
58223;BME280;44020;50.890;15.796;2022-12-18T04:48:49;99200.71;;;-5.61;77.49
58223;BME280;44020;50.890;15.796;2022-12-18T04:51:17;99206.79;;;-5.60;77.44
58223;BME280;44020;50.890;15.796;2022-12-18T04:53:44;99208.86;;;-5.60;77.48
58223;BME280;44020;50.890;15.796;2022-12-18T04:56:13;99216.09;;;-5.63;77.46
58223;BME280;44020;50.890;15.796;2022-12-18T04:58:42;99214.65;;;-5.65;77.62
58223;BME280;44020;50.890;15.796;2022-12-18T05:01:12;99215.13;;;-5.68;77.68
58223;BME280;44020;50.890;15.796;2022-12-18T05:03:40;99219.55;;;-5.72;77.69
58223;BME280;44020;50.890;15.796;2022-12-18T05:06:08;99224.08;;;-5.80;77.69
58223;BME280;44020;50.890;15.796;2022-12-18T05:08:36;99225.77;;;-5.81;77.74
58223;BME280;44020;50.890;15.796;2022-12-18T05:11:09;99225.77;;;-5.81;77.78
58223;BME280;44020;50.890;15.796;2022-12-18T05:13:38;99227.14;;;-5.83;77.61
58223;BME280;44020;50.890;15.796;2022-12-18T05:16:06;99221.67;;;-5.88;77.36
58223;BME280;44020;50.890;15.796;2022-12-18T05:18:34;99223.24;;;-5.98;77.13
58223;BME280;44020;50.890;15.796;2022-12-18T05:21:01;99228.51;;;-6.02;77.17
58223;BME280;44020;50.890;15.796;2022-12-18T05:23:29;99232.98;;;-6.03;77.25
58223;BME280;44020;50.890;15.796;2022-12-18T05:25:58;99231.39;;;-6.05;77.11
58223;BME280;44020;50.890;15.796;2022-12-18T05:28:28;99235.52;;;-6.07;77.05
58223;BME280;44020;50.890;15.796;2022-12-18T05:30:57;99236.86;;;-6.08;77.03
58223;BME280;44020;50.890;15.796;2022-12-18T05:33:28;99242.39;;;-6.09;76.85
58223;BME280;44020;50.890;15.796;2022-12-18T05:35:57;99244.10;;;-6.10;76.97
58223;BME280;44020;50.890;15.796;2022-12-18T05:38:29;99250.49;;;-6.10;76.65
58223;BME280;44020;50.890;15.796;2022-12-18T05:40:56;99258.41;;;-6.12;76.67
58223;BME280;44020;50.890;15.796;2022-12-18T05:43:24;99264.52;;;-6.18;76.70
58223;BME280;44020;50.890;15.796;2022-12-18T05:45:53;99264.50;;;-6.26;76.49
58223;BME280;44020;50.890;15.796;2022-12-18T05:48:36;99264.55;;;-6.32;76.65
58223;BME280;44020;50.890;15.796;2022-12-18T05:51:05;99268.98;;;-6.35;77.02
58223;BME280;44020;50.890;15.796;2022-12-18T05:53:33;99268.98;;;-6.35;77.08
58223;BME280;44020;50.890;15.796;2022-12-18T05:56:05;99273.98;;;-6.35;77.24
58223;BME280;44020;50.890;15.796;2022-12-18T05:58:33;99283.87;;;-6.34;77.30
58223;BME280;44020;50.890;15.796;2022-12-18T06:01:17;99285.85;;;-6.31;77.54
58223;BME280;44020;50.890;15.796;2022-12-18T06:03:45;99282.62;;;-6.28;77.74
58223;BME280;44020;50.890;15.796;2022-12-18T06:06:19;99282.60;;;-6.29;77.82
58223;BME280;44020;50.890;15.796;2022-12-18T06:08:47;99288.18;;;-6.26;77.74
58223;BME280;44020;50.890;15.796;2022-12-18T06:11:18;99292.22;;;-6.24;77.93
58223;BME280;44020;50.890;15.796;2022-12-18T06:13:46;99301.24;;;-6.23;77.58
58223;BME280;44020;50.890;15.796;2022-12-18T06:16:13;99303.94;;;-6.26;77.48
58223;BME280;44020;50.890;15.796;2022-12-18T06:18:40;99308.57;;;-6.28;77.38
58223;BME280;44020;50.890;15.796;2022-12-18T06:21:07;99306.80;;;-6.29;77.40
58223;BME280;44020;50.890;15.796;2022-12-18T06:23:34;99306.61;;;-6.30;77.47
58223;BME280;44020;50.890;15.796;2022-12-18T06:26:07;99306.42;;;-6.31;77.31
58223;BME280;44020;50.890;15.796;2022-12-18T06:28:35;99305.66;;;-6.34;77.27
58223;BME280;44020;50.890;15.796;2022-12-18T06:31:03;99305.73;;;-6.39;77.20
58223;BME280;44020;50.890;15.796;2022-12-18T06:33:31;99306.41;;;-6.39;77.21
58223;BME280;44020;50.890;15.796;2022-12-18T06:36:01;99307.34;;;-6.44;77.07
58223;BME280;44020;50.890;15.796;2022-12-18T06:38:29;99307.59;;;-6.47;77.10
58223;BME280;44020;50.890;15.796;2022-12-18T06:40:56;99303.45;;;-6.47;77.17
58223;BME280;44020;50.890;15.796;2022-12-18T06:43:23;99303.77;;;-6.49;77.33
58223;BME280;44020;50.890;15.796;2022-12-18T06:45:50;99310.67;;;-6.49;77.31
58223;BME280;44020;50.890;15.796;2022-12-18T06:48:19;99310.66;;;-6.50;77.59
58223;BME280;44020;50.890;15.796;2022-12-18T06:50:47;99315.33;;;-6.50;77.79
58223;BME280;44020;50.890;15.796;2022-12-18T06:53:14;99312.23;;;-6.50;77.63
58223;BME280;44020;50.890;15.796;2022-12-18T06:55:42;99305.95;;;-6.52;77.71
58223;BME280;44020;50.890;15.796;2022-12-18T06:58:09;99314.04;;;-6.53;77.85
58223;BME280;44020;50.890;15.796;2022-12-18T07:00:36;99319.20;;;-6.54;77.96
58223;BME280;44020;50.890;15.796;2022-12-18T07:03:03;99319.20;;;-6.54;78.06
58223;BME280;44020;50.890;15.796;2022-12-18T07:05:31;99317.09;;;-6.55;77.88
58223;BME280;44020;50.890;15.796;2022-12-18T07:07:58;99326.98;;;-6.54;77.92
58223;BME280;44020;50.890;15.796;2022-12-18T07:10:26;99329.89;;;-6.55;77.85
58223;BME280;44020;50.890;15.796;2022-12-18T07:12:53;99334.86;;;-6.57;77.86
58223;BME280;44020;50.890;15.796;2022-12-18T07:15:20;99335.86;;;-6.58;77.65
58223;BME280;44020;50.890;15.796;2022-12-18T07:17:47;99339.77;;;-6.61;77.37
58223;BME280;44020;50.890;15.796;2022-12-18T07:20:14;99345.73;;;-6.65;77.38
58223;BME280;44020;50.890;15.796;2022-12-18T07:22:41;99352.76;;;-6.67;77.35
58223;BME280;44020;50.890;15.796;2022-12-18T07:25:08;99358.74;;;-6.70;77.08
58223;BME280;44020;50.890;15.796;2022-12-18T07:27:36;99357.02;;;-6.77;77.08
58223;BME280;44020;50.890;15.796;2022-12-18T07:30:03;99355.11;;;-6.77;77.21
58223;BME280;44020;50.890;15.796;2022-12-18T07:32:30;99359.52;;;-6.80;76.90
58223;BME280;44020;50.890;15.796;2022-12-18T07:34:58;99364.42;;;-6.84;77.08
58223;BME280;44020;50.890;15.796;2022-12-18T07:37:25;99366.59;;;-6.87;76.83
58223;BME280;44020;50.890;15.796;2022-12-18T07:39:52;99369.80;;;-6.91;76.90
58223;BME280;44020;50.890;15.796;2022-12-18T07:42:19;99371.55;;;-6.89;77.09
58223;BME280;44020;50.890;15.796;2022-12-18T07:44:59;99369.86;;;-6.88;77.35
58223;BME280;44020;50.890;15.796;2022-12-18T07:47:28;99375.79;;;-6.86;77.33
58223;BME280;44020;50.890;15.796;2022-12-18T07:49:55;99374.41;;;-6.86;77.27
58223;BME280;44020;50.890;15.796;2022-12-18T07:52:22;99372.20;;;-6.84;77.46
58223;BME280;44020;50.890;15.796;2022-12-18T07:54:49;99372.58;;;-6.82;77.62
58223;BME280;44020;50.890;15.796;2022-12-18T07:57:17;99375.31;;;-6.84;77.52
58223;BME280;44020;50.890;15.796;2022-12-18T07:59:44;99381.73;;;-6.84;77.37
58223;BME280;44020;50.890;15.796;2022-12-18T08:02:11;99383.08;;;-6.84;77.42
58223;BME280;44020;50.890;15.796;2022-12-18T08:04:38;99383.35;;;-6.88;77.22
58223;BME280;44020;50.890;15.796;2022-12-18T08:07:06;99383.48;;;-6.96;77.13
58223;BME280;44020;50.890;15.796;2022-12-18T08:09:33;99382.21;;;-6.98;77.15
58223;BME280;44020;50.890;15.796;2022-12-18T08:12:00;99389.52;;;-7.02;77.08
58223;BME280;44020;50.890;15.796;2022-12-18T08:14:27;99398.23;;;-7.06;77.09
58223;BME280;44020;50.890;15.796;2022-12-18T08:16:54;99395.11;;;-7.12;76.93
58223;BME280;44020;50.890;15.796;2022-12-18T08:19:21;99399.53;;;-7.15;76.97
58223;BME280;44020;50.890;15.796;2022-12-18T08:21:49;99400.80;;;-7.19;76.96
58223;BME280;44020;50.890;15.796;2022-12-18T08:24:16;99401.24;;;-7.22;77.05
58223;BME280;44020;50.890;15.796;2022-12-18T08:26:43;99401.27;;;-7.21;77.17
58223;BME280;44020;50.890;15.796;2022-12-18T08:29:11;99407.66;;;-7.21;76.87
58223;BME280;44020;50.890;15.796;2022-12-18T08:31:38;99407.23;;;-7.24;76.95
58223;BME280;44020;50.890;15.796;2022-12-18T08:34:05;99399.41;;;-7.26;76.81
58223;BME280;44020;50.890;15.796;2022-12-18T08:36:32;99396.65;;;-7.25;76.95
58223;BME280;44020;50.890;15.796;2022-12-18T08:39:00;99391.91;;;-7.22;77.12
58223;BME280;44020;50.890;15.796;2022-12-18T08:41:27;99389.08;;;-7.19;77.30
58223;BME280;44020;50.890;15.796;2022-12-18T08:43:54;99383.98;;;-7.16;77.42
58223;BME280;44020;50.890;15.796;2022-12-18T08:46:42;99388.56;;;-7.12;77.38
58223;BME280;44020;50.890;15.796;2022-12-18T08:49:11;99392.11;;;-7.09;77.55
58223;BME280;44020;50.890;15.796;2022-12-18T08:51:38;99390.73;;;-7.09;77.33
58223;BME280;44020;50.890;15.796;2022-12-18T08:54:06;99393.80;;;-7.10;77.40
58223;BME280;44020;50.890;15.796;2022-12-18T08:56:34;99395.84;;;-7.12;77.41
58223;BME280;44020;50.890;15.796;2022-12-18T08:59:01;99397.70;;;-7.13;77.50
58223;BME280;44020;50.890;15.796;2022-12-18T09:01:29;99396.54;;;-7.11;77.50
58223;BME280;44020;50.890;15.796;2022-12-18T09:03:56;99387.95;;;-7.09;77.46
58223;BME280;44020;50.890;15.796;2022-12-18T09:06:24;99382.50;;;-7.06;77.74
58223;BME280;44020;50.890;15.796;2022-12-18T09:08:53;99382.94;;;-7.03;77.44
58223;BME280;44020;50.890;15.796;2022-12-18T09:11:23;99376.79;;;-7.00;77.38
58223;BME280;44020;50.890;15.796;2022-12-18T09:13:51;99369.83;;;-6.96;77.54
58223;BME280;44020;50.890;15.796;2022-12-18T09:16:20;99368.85;;;-6.94;77.23
58223;BME280;44020;50.890;15.796;2022-12-18T09:18:49;99366.12;;;-6.92;77.37
58223;BME280;44020;50.890;15.796;2022-12-18T09:21:20;99365.48;;;-6.90;77.27
58223;BME280;44020;50.890;15.796;2022-12-18T09:23:52;99363.64;;;-6.88;77.15
58223;BME280;44020;50.890;15.796;2022-12-18T09:26:21;99359.40;;;-6.85;77.14
58223;BME280;44020;50.890;15.796;2022-12-18T09:28:49;99357.40;;;-6.82;77.08
58223;BME280;44020;50.890;15.796;2022-12-18T09:31:18;99363.84;;;-6.80;77.06
58223;BME280;44020;50.890;15.796;2022-12-18T09:33:47;99361.80;;;-6.79;77.07
58223;BME280;44020;50.890;15.796;2022-12-18T09:36:16;99361.33;;;-6.77;76.84
58223;BME280;44020;50.890;15.796;2022-12-18T09:38:45;99369.72;;;-6.80;76.65
58223;BME280;44020;50.890;15.796;2022-12-18T09:43:58;99372.99;;;-6.87;76.61
58223;BME280;44020;50.890;15.796;2022-12-18T09:46:33;99357.96;;;-6.87;76.54
58223;BME280;44020;50.890;15.796;2022-12-18T09:49:07;99351.14;;;-6.84;76.40
58223;BME280;44020;50.890;15.796;2022-12-18T09:51:54;99351.00;;;-6.82;76.56
58223;BME280;44020;50.890;15.796;2022-12-18T09:54:36;99347.17;;;-6.83;76.46
58223;BME280;44020;50.890;15.796;2022-12-18T09:57:05;99340.83;;;-6.81;76.38
58223;BME280;44020;50.890;15.796;2022-12-18T09:59:38;99343.27;;;-6.80;76.48
58223;BME280;44020;50.890;15.796;2022-12-18T10:02:25;99338.47;;;-6.79;76.33
58223;BME280;44020;50.890;15.796;2022-12-18T10:05:04;99342.65;;;-6.77;76.08
58223;BME280;44020;50.890;15.796;2022-12-18T10:08:15;99342.14;;;-6.77;76.27
58223;BME280;44020;50.890;15.796;2022-12-18T10:25:02;99354.50;;;-6.74;76.08
58223;BME280;44020;50.890;15.796;2022-12-18T10:27:31;99368.09;;;-6.69;76.23
58223;BME280;44020;50.890;15.796;2022-12-18T10:30:00;99371.16;;;-6.64;76.10
58223;BME280;44020;50.890;15.796;2022-12-18T10:32:29;99368.98;;;-6.61;76.08
58223;BME280;44020;50.890;15.796;2022-12-18T10:34:58;99375.86;;;-6.56;76.19
58223;BME280;44020;50.890;15.796;2022-12-18T10:37:27;99381.41;;;-6.48;76.27
58223;BME280;44020;50.890;15.796;2022-12-18T10:40:11;99383.13;;;-6.41;76.16
58223;BME280;44020;50.890;15.796;2022-12-18T10:42:39;99377.70;;;-6.36;76.09
58223;BME280;44020;50.890;15.796;2022-12-18T10:45:11;99380.61;;;-6.31;76.20
58223;BME280;44020;50.890;15.796;2022-12-18T10:47:43;99377.83;;;-6.24;76.20
58223;BME280;44020;50.890;15.796;2022-12-18T10:50:36;99377.33;;;-6.16;76.08
58223;BME280;44020;50.890;15.796;2022-12-18T10:53:05;99372.86;;;-6.07;76.18
58223;BME280;44020;50.890;15.796;2022-12-18T10:55:35;99369.08;;;-5.99;76.18
58223;BME280;44020;50.890;15.796;2022-12-18T10:58:24;99368.03;;;-5.90;75.99
58223;BME280;44020;50.890;15.796;2022-12-18T11:03:41;99357.98;;;-5.66;76.29
58223;BME280;44020;50.890;15.796;2022-12-18T11:06:20;99351.30;;;-5.54;76.18
58223;BME280;44020;50.890;15.796;2022-12-18T11:09:05;99347.60;;;-5.40;76.13
58223;BME280;44020;50.890;15.796;2022-12-18T11:11:33;99348.00;;;-5.28;75.98
58223;BME280;44020;50.890;15.796;2022-12-18T11:14:05;99345.77;;;-5.18;75.91
58223;BME280;44020;50.890;15.796;2022-12-18T11:16:36;99347.18;;;-5.08;75.87
58223;BME280;44020;50.890;15.796;2022-12-18T11:19:23;99344.30;;;-4.95;75.76
58223;BME280;44020;50.890;15.796;2022-12-18T11:21:52;99339.63;;;-4.84;75.64
58223;BME280;44020;50.890;15.796;2022-12-18T11:24:40;99334.36;;;-4.78;75.42
58223;BME280;44020;50.890;15.796;2022-12-18T11:27:16;99331.11;;;-4.66;75.53
58223;BME280;44020;50.890;15.796;2022-12-18T11:29:45;99332.82;;;-4.56;75.28
58223;BME280;44020;50.890;15.796;2022-12-18T11:35:10;99317.60;;;-4.43;75.01
58223;BME280;44020;50.890;15.796;2022-12-18T11:37:41;99313.94;;;-4.32;75.02
58223;BME280;44020;50.890;15.796;2022-12-18T11:40:20;99304.86;;;-4.25;74.99
58223;BME280;44020;50.890;15.796;2022-12-18T11:45:38;99302.30;;;-4.09;74.94
58223;BME280;44020;50.890;15.796;2022-12-18T11:48:18;99300.83;;;-4.04;74.71
58223;BME280;44020;50.890;15.796;2022-12-18T11:50:56;99302.95;;;-4.00;74.47
58223;BME280;44020;50.890;15.796;2022-12-18T11:53:26;99298.77;;;-4.03;74.27
58223;BME280;44020;50.890;15.796;2022-12-18T11:56:11;99298.27;;;-4.00;74.44
58223;BME280;44020;50.890;15.796;2022-12-18T11:58:51;99302.70;;;-3.92;74.59
58223;BME280;44020;50.890;15.796;2022-12-18T12:01:41;99301.88;;;-3.90;74.50
58223;BME280;44020;50.890;15.796;2022-12-18T12:07:44;99296.85;;;-3.90;74.24
58223;BME280;44020;50.890;15.796;2022-12-18T12:12:57;99296.45;;;-3.93;74.18
58223;BME280;44020;50.890;15.796;2022-12-18T12:18:33;99292.95;;;-3.96;74.30
58223;BME280;44020;50.890;15.796;2022-12-18T12:21:54;99290.30;;;-3.98;74.20
58223;BME280;44020;50.890;15.796;2022-12-18T12:24:26;99288.55;;;-4.00;74.11
58223;BME280;44020;50.890;15.796;2022-12-18T12:40:28;99284.25;;;-4.10;74.40
58223;BME280;44020;50.890;15.796;2022-12-18T12:43:22;99277.16;;;-4.08;74.33
58223;BME280;44020;50.890;15.796;2022-12-18T12:46:00;99273.88;;;-4.06;74.22
58223;BME280;44020;50.890;15.796;2022-12-18T12:48:55;99268.33;;;-4.07;74.18
58223;BME280;44020;50.890;15.796;2022-12-18T12:51:26;99268.66;;;-4.07;74.26
58223;BME280;44020;50.890;15.796;2022-12-18T12:53:57;99270.73;;;-4.08;74.39
58223;BME280;44020;50.890;15.796;2022-12-18T13:02:26;99271.73;;;-4.11;74.33
58223;BME280;44020;50.890;15.796;2022-12-18T13:13:08;99286.98;;;-4.13;74.33
58223;BME280;44020;50.890;15.796;2022-12-18T13:23:33;99307.36;;;-4.21;74.71
58223;BME280;44020;50.890;15.796;2022-12-18T13:36:48;99294.58;;;-4.28;74.75
58223;BME280;44020;50.890;15.796;2022-12-18T13:42:21;99304.71;;;-4.35;74.67
58223;BME280;44020;50.890;15.796;2022-12-18T13:45:01;99310.13;;;-4.44;74.49
58223;BME280;44020;50.890;15.796;2022-12-18T13:49:56;99317.10;;;-4.52;74.48
58223;BME280;44020;50.890;15.796;2022-12-18T13:52:26;99326.94;;;-4.55;74.49
58223;BME280;44020;50.890;15.796;2022-12-18T13:54:56;99335.01;;;-4.61;74.46
58223;BME280;44020;50.890;15.796;2022-12-18T13:57:32;99334.88;;;-4.68;74.42
58223;BME280;44020;50.890;15.796;2022-12-18T14:00:33;99335.98;;;-4.75;74.34
58223;BME280;44020;50.890;15.796;2022-12-18T14:03:20;99341.72;;;-4.84;74.41
58223;BME280;44020;50.890;15.796;2022-12-18T14:06:00;99344.95;;;-4.87;74.41
58223;BME280;44020;50.890;15.796;2022-12-18T14:08:37;99347.77;;;-4.95;74.16
58223;BME280;44020;50.890;15.796;2022-12-18T14:11:07;99355.25;;;-5.03;74.22
58223;BME280;44020;50.890;15.796;2022-12-18T14:13:42;99359.49;;;-5.07;74.36
58223;BME280;44020;50.890;15.796;2022-12-18T14:16:13;99358.73;;;-5.11;74.44
58223;BME280;44020;50.890;15.796;2022-12-18T14:18:50;99357.13;;;-5.14;74.45
58223;BME280;44020;50.890;15.796;2022-12-18T14:21:27;99361.05;;;-5.16;74.33
58223;BME280;44020;50.890;15.796;2022-12-18T14:24:20;99351.61;;;-5.21;74.19
58223;BME280;44020;50.890;15.796;2022-12-18T14:26:49;99352.38;;;-5.27;74.25
58223;BME280;44020;50.890;15.796;2022-12-18T14:29:24;99354.03;;;-5.31;74.22
58223;BME280;44020;50.890;15.796;2022-12-18T14:34:33;99350.23;;;-5.48;73.91
58223;BME280;44020;50.890;15.796;2022-12-18T14:37:00;99351.14;;;-5.54;73.76
58223;BME280;44020;50.890;15.796;2022-12-18T14:39:28;99355.50;;;-5.60;73.80
58223;BME280;44020;50.890;15.796;2022-12-18T14:41:56;99353.63;;;-5.67;73.55
58223;BME280;44020;50.890;15.796;2022-12-18T14:44:23;99358.01;;;-5.73;73.74
58223;BME280;44020;50.890;15.796;2022-12-18T14:46:51;99359.11;;;-5.78;73.76
58223;BME280;44020;50.890;15.796;2022-12-18T14:49:32;99363.30;;;-5.85;73.81
58223;BME280;44020;50.890;15.796;2022-12-18T14:52:05;99359.52;;;-5.91;73.95
58223;BME280;44020;50.890;15.796;2022-12-18T14:54:35;99361.02;;;-5.95;74.15
58223;BME280;44020;50.890;15.796;2022-12-18T14:57:05;99360.52;;;-5.94;74.28
58223;BME280;44020;50.890;15.796;2022-12-18T14:59:36;99363.99;;;-5.92;74.43
58223;BME280;44020;50.890;15.796;2022-12-18T15:02:04;99363.09;;;-5.95;74.17
58223;BME280;44020;50.890;15.796;2022-12-18T15:04:39;99357.61;;;-6.01;73.88